createdAt,value
2022-08-17T00:00:49.269Z,100520.56
2022-08-17T00:03:20.903Z,100528.53
2022-08-17T00:05:48.504Z,100527.75
2022-08-17T00:08:15.073Z,100519.34
2022-08-17T00:10:41.888Z,100517.47
2022-08-17T00:13:08.932Z,100516.56
2022-08-17T00:15:35.177Z,100536.41
2022-08-17T00:18:01.436Z,100535.00
2022-08-17T00:20:30.508Z,100516.41
2022-08-17T00:23:04.845Z,100542.25
2022-08-17T00:25:31.076Z,100544.13
2022-08-17T00:27:57.327Z,100573.06
2022-08-17T00:30:24.355Z,100573.06
2022-08-17T00:33:22.934Z,100566.00
2022-08-17T00:35:37.114Z,100556.78
2022-08-17T00:38:03.362Z,100556.00
2022-08-17T00:40:40.833Z,100559.81
2022-08-17T00:43:15.195Z,100572.59
2022-08-17T00:45:41.628Z,100574.03
2022-08-17T00:48:23.769Z,100573.56
2022-08-17T00:51:00.561Z,100570.16
2022-08-17T00:53:27.059Z,100574.81
2022-08-17T00:55:53.294Z,100567.94
2022-08-17T00:58:35.842Z,100569.81
2022-08-17T01:01:02.961Z,100566.50
2022-08-17T01:03:29.236Z,100564.19
2022-08-17T01:05:56.922Z,100562.19
2022-08-17T01:08:24.537Z,100617.28
2022-08-17T01:10:59.652Z,100615.13
2022-08-17T01:13:27.886Z,100601.66
2022-08-17T01:16:04.767Z,100588.09
2022-08-17T01:18:31.004Z,100591.97
2022-08-17T01:20:57.303Z,100574.84
2022-08-17T01:23:23.961Z,100603.09
2022-08-17T01:25:51.119Z,100600.28
2022-08-17T01:28:33.353Z,100584.38
2022-08-17T01:31:04.105Z,100582.50
2022-08-17T01:33:30.341Z,100572.69
2022-08-17T01:35:56.574Z,100559.56
2022-08-17T01:38:27.218Z,100558.28
2022-08-17T01:40:57.664Z,100547.06
2022-08-17T01:43:25.458Z,100545.97
2022-08-17T01:46:03.614Z,100550.34
2022-08-17T01:48:31.449Z,100557.56
2022-08-17T01:50:57.668Z,100565.31
2022-08-17T01:53:32.313Z,100564.88
2022-08-17T01:55:59.765Z,100558.13
2022-08-17T01:58:26.013Z,100563.28
2022-08-17T02:01:00.425Z,100575.91
2022-08-17T02:03:27.419Z,100580.00
2022-08-17T02:05:53.692Z,100578.56
2022-08-17T02:08:20.398Z,100564.72
2022-08-17T02:10:47.053Z,100564.84
2022-08-17T02:13:13.321Z,100560.63
2022-08-17T02:15:39.575Z,100551.75
2022-08-17T02:18:06.728Z,100551.44
2022-08-17T02:20:41.343Z,100580.13
2022-08-17T02:23:09.079Z,100587.75
2022-08-17T02:25:35.326Z,100585.56
2022-08-17T02:28:01.722Z,100567.97
2022-08-17T02:30:50.094Z,100564.09
2022-08-17T02:33:14.193Z,100563.13
2022-08-17T02:35:40.443Z,100589.78
2022-08-17T02:38:06.770Z,100595.38
2022-08-17T02:40:36.624Z,100599.44
2022-08-17T02:43:03.431Z,100601.13
2022-08-17T02:45:29.727Z,100584.28
2022-08-17T02:47:55.976Z,100583.47
2022-08-17T02:50:22.557Z,100595.28
2022-08-17T02:53:01.627Z,100589.69
2022-08-17T02:55:30.168Z,100597.78
2022-08-17T02:57:56.403Z,100578.03
2022-08-17T03:00:23.548Z,100559.63
2022-08-17T03:02:50.058Z,100559.75
2022-08-17T03:05:17.209Z,100572.06
2022-08-17T03:07:43.501Z,100570.50
2022-08-17T03:10:10.259Z,100561.47
2022-08-17T03:12:36.955Z,100559.59
2022-08-17T03:15:10.893Z,100550.09
2022-08-17T03:17:37.138Z,100553.53
2022-08-17T03:20:04.247Z,100550.41
2022-08-17T03:22:36.797Z,100544.94
2022-08-17T03:25:04.951Z,100543.03
2022-08-17T03:27:36.830Z,100526.56
2022-08-17T03:30:06.165Z,100568.72
2022-08-17T03:32:36.658Z,100588.16
2022-08-17T03:35:02.907Z,100595.72
2022-08-17T03:37:29.158Z,100637.47
2022-08-17T03:39:55.458Z,100638.38
2022-08-17T03:42:32.040Z,100616.59
2022-08-17T03:44:59.096Z,100605.97
2022-08-17T03:47:25.333Z,100588.13
2022-08-17T03:49:51.568Z,100559.78
2022-08-17T03:52:17.820Z,100538.63
2022-08-17T03:54:44.068Z,100538.13
2022-08-17T03:57:10.581Z,100523.00
2022-08-17T03:59:36.969Z,100515.38
2022-08-17T04:02:08.153Z,100511.66
2022-08-17T04:04:34.781Z,100511.78
2022-08-17T04:07:01.034Z,100530.72
2022-08-17T04:09:27.289Z,100556.38
2022-08-17T04:11:53.524Z,100588.94
2022-08-17T04:14:19.797Z,100581.41
2022-08-17T04:16:46.035Z,100559.81
2022-08-17T04:19:12.277Z,100552.03
2022-08-17T04:21:38.518Z,100550.16
2022-08-17T04:24:04.867Z,100563.97
2022-08-17T04:26:52.656Z,100554.91
2022-08-17T04:29:17.820Z,100575.28
2022-08-17T04:31:44.057Z,100566.63
2022-08-17T04:34:10.295Z,100553.75
2022-08-17T04:36:36.537Z,100539.00
2022-08-17T04:39:02.795Z,100525.47
2022-08-17T04:41:29.038Z,100534.19
2022-08-17T04:43:55.271Z,100525.63
2022-08-17T04:46:22.652Z,100527.53
2022-08-17T04:48:49.680Z,100519.44
2022-08-17T04:51:23.134Z,100524.31
2022-08-17T04:53:54.563Z,100572.53
2022-08-17T04:56:21.181Z,100632.63
2022-08-17T04:58:49.791Z,100651.97
2022-08-17T05:01:16.597Z,100629.34
2022-08-17T05:03:49.754Z,100684.56
2022-08-17T05:06:15.980Z,100676.53
2022-08-17T05:08:42.232Z,100667.91
2022-08-17T05:11:08.465Z,100655.13
2022-08-17T05:13:34.708Z,100632.59
2022-08-17T05:16:01.349Z,100600.53
2022-08-17T05:18:27.665Z,100541.94
2022-08-17T05:20:53.932Z,100524.44
2022-08-17T05:23:20.594Z,100511.50
2022-08-17T05:25:47.906Z,100523.19
2022-08-17T05:28:14.608Z,100682.00
2022-08-17T05:30:42.533Z,100781.38
2022-08-17T05:33:10.231Z,100798.66
2022-08-17T05:35:36.962Z,100789.59
2022-08-17T05:38:03.627Z,100789.31
2022-08-17T05:40:32.647Z,100780.19
2022-08-17T05:43:06.231Z,100775.56
2022-08-17T05:45:55.158Z,100753.34
2022-08-17T05:48:18.697Z,100702.84
2022-08-17T05:51:03.742Z,100605.28
2022-08-17T05:53:31.389Z,100493.53
2022-08-17T05:56:29.874Z,100451.97
2022-08-17T05:59:15.350Z,100419.47
2022-08-17T06:01:49.573Z,100321.84
2022-08-17T06:04:15.768Z,100253.13
2022-08-17T06:06:44.600Z,100243.91
2022-08-17T06:09:31.544Z,100275.78
2022-08-17T06:12:02.783Z,100220.34
2022-08-17T06:14:50.685Z,100164.00
2022-08-17T06:17:18.234Z,100261.03
2022-08-17T06:19:47.228Z,100250.13
2022-08-17T06:22:13.970Z,100275.72
2022-08-17T06:24:54.637Z,100221.78
2022-08-17T06:27:20.827Z,100318.69
2022-08-17T06:29:55.975Z,100234.91
2022-08-17T06:32:22.205Z,100256.84
2022-08-17T06:34:48.443Z,100307.38
2022-08-17T06:37:37.653Z,100353.50
2022-08-17T06:40:14.759Z,100385.97
2022-08-17T06:43:05.595Z,100373.28
2022-08-17T06:45:41.944Z,100228.38
2022-08-17T06:48:13.386Z,100391.41
2022-08-17T06:50:42.017Z,100290.63
2022-08-17T06:53:13.721Z,100296.34
2022-08-17T06:55:47.125Z,100371.28
2022-08-17T06:58:16.276Z,100433.38
2022-08-17T07:00:43.640Z,100235.84
2022-08-17T07:03:28.789Z,100358.78
2022-08-17T07:05:57.496Z,100259.06
2022-08-17T07:08:31.198Z,100253.47
2022-08-17T07:11:06.990Z,100285.78
2022-08-17T07:13:52.192Z,100300.22
2022-08-17T07:16:19.989Z,100297.75
2022-08-17T07:18:46.542Z,100177.09
2022-08-17T07:21:18.072Z,100243.53
2022-08-17T07:24:01.198Z,100181.38
2022-08-17T07:26:27.463Z,100247.03
2022-08-17T07:28:54.074Z,100257.25
2022-08-17T07:31:20.324Z,100309.53
2022-08-17T07:33:57.862Z,100126.09
2022-08-17T07:36:29.137Z,100117.66
2022-08-17T07:38:56.504Z,100113.06
2022-08-17T07:41:22.738Z,100173.31
2022-08-17T07:43:48.985Z,100361.88
2022-08-17T07:46:24.893Z,100064.97
2022-08-17T07:48:52.392Z,100143.34
2022-08-17T07:51:29.277Z,100094.91
2022-08-17T07:54:09.100Z,100104.09
2022-08-17T07:56:44.247Z,100105.25
2022-08-17T07:59:12.179Z,100151.00
2022-08-17T08:01:41.774Z,100034.28
2022-08-17T08:04:19.412Z,100347.38
2022-08-17T08:06:51.228Z,100161.38
2022-08-17T08:09:34.258Z,99771.97
2022-08-17T08:12:05.205Z,100078.25
2022-08-17T08:14:31.762Z,100261.22
2022-08-17T08:17:02.061Z,100106.03
2022-08-17T08:19:28.636Z,99902.69
2022-08-17T08:22:00.194Z,99752.47
2022-08-17T08:24:41.547Z,99664.13
2022-08-17T08:27:26.372Z,99878.75
2022-08-17T08:29:57.454Z,99896.09
2022-08-17T08:32:26.657Z,99762.53
2022-08-17T08:35:01.629Z,99904.16
2022-08-17T08:37:36.677Z,99836.06
2022-08-17T08:40:30.275Z,100001.00
2022-08-17T08:42:59.803Z,100086.81
2022-08-17T08:45:38.343Z,99897.66
2022-08-17T08:48:22.719Z,99824.47
2022-08-17T08:50:54.918Z,100214.41
2022-08-17T08:53:39.265Z,99861.75
2022-08-17T08:56:12.228Z,100098.28
2022-08-17T08:58:57.256Z,100025.31
2022-08-17T09:01:29.423Z,99992.84
2022-08-17T09:04:17.005Z,100118.66
2022-08-17T09:06:57.876Z,100226.34
2022-08-17T09:09:35.898Z,100279.94
2022-08-17T09:12:05.295Z,100238.13
2022-08-17T09:14:46.472Z,100273.50
2022-08-17T09:17:28.648Z,100082.28
2022-08-17T09:19:56.179Z,100190.94
2022-08-17T09:22:36.338Z,100074.69
2022-08-17T09:25:21.583Z,99995.03
2022-08-17T09:27:52.790Z,99848.41
2022-08-17T09:30:19.195Z,99695.88
2022-08-17T09:32:46.504Z,99802.88
2022-08-17T09:35:15.720Z,99861.06
2022-08-17T09:37:44.693Z,99731.97
2022-08-17T09:40:15.829Z,99800.00
2022-08-17T09:42:46.931Z,99920.97
2022-08-17T09:45:31.959Z,99871.38
2022-08-17T09:48:01.130Z,99627.59
2022-08-17T09:51:04.035Z,99688.94
2022-08-17T09:53:22.657Z,99670.34
2022-08-17T09:55:51.672Z,99565.28
2022-08-17T09:58:28.965Z,99728.28
2022-08-17T10:00:57.844Z,99435.16
2022-08-17T10:03:42.337Z,99644.09
2022-08-17T10:06:27.487Z,99800.84
2022-08-17T10:08:58.542Z,99462.75
2022-08-17T10:11:33.903Z,99385.66
2022-08-17T10:14:07.903Z,99525.03
2022-08-17T10:16:56.316Z,99179.78
2022-08-17T10:19:22.501Z,99321.75
2022-08-17T10:21:49.720Z,99386.53
2022-08-17T10:24:31.883Z,99674.88
2022-08-17T10:26:58.549Z,99562.06
2022-08-17T10:29:30.779Z,99853.22
2022-08-17T10:32:17.062Z,99467.78
2022-08-17T10:34:52.314Z,99652.09
2022-08-17T10:37:37.266Z,99671.78
2022-08-17T10:40:22.387Z,99666.81
2022-08-17T10:42:50.210Z,99313.84
2022-08-17T10:45:23.567Z,99339.84
2022-08-17T10:48:00.119Z,99421.78
2022-08-17T10:50:49.234Z,99280.88
2022-08-17T10:53:38.191Z,99224.50
2022-08-17T10:56:12.618Z,99144.34
2022-08-17T10:58:47.729Z,99606.41
2022-08-17T11:01:14.004Z,99237.66
2022-08-17T11:03:53.500Z,99379.13
2022-08-17T11:06:39.973Z,99096.16
2022-08-17T11:09:09.233Z,99350.25
2022-08-17T11:11:54.382Z,99447.94
2022-08-17T11:14:39.229Z,99357.41
2022-08-17T11:17:08.475Z,99628.34
2022-08-17T11:19:43.629Z,99177.84
2022-08-17T11:22:15.567Z,99313.31
2022-08-17T11:24:45.565Z,99073.22
2022-08-17T11:27:20.174Z,99347.06
2022-08-17T11:29:49.441Z,99121.47
2022-08-17T11:32:37.348Z,99305.63
2022-08-17T11:35:09.569Z,99361.63
2022-08-17T11:37:39.900Z,99185.00
2022-08-17T11:40:12.733Z,99348.31
2022-08-17T11:42:45.667Z,99410.13
2022-08-17T11:45:32.252Z,99363.16
2022-08-17T11:48:27.891Z,99276.09
2022-08-17T11:50:57.202Z,99316.13
2022-08-17T11:53:38.634Z,99195.78
2022-08-17T11:56:07.640Z,99299.81
2022-08-17T11:58:40.466Z,99140.72
2022-08-17T12:01:26.981Z,99180.91
2022-08-17T12:03:55.683Z,98891.63
2022-08-17T12:06:29.311Z,99261.44
2022-08-17T12:09:01.690Z,99417.72
2022-08-17T12:11:56.359Z,99517.75
2022-08-17T12:14:19.220Z,99555.38
2022-08-17T12:16:57.456Z,99491.53
2022-08-17T12:19:23.697Z,99613.69
2022-08-17T12:21:51.934Z,99576.78
2022-08-17T12:24:24.270Z,99801.47
2022-08-17T12:26:51.310Z,98955.13
2022-08-17T12:29:18.491Z,99206.31
2022-08-17T12:32:02.367Z,99199.41
2022-08-17T12:34:33.697Z,99056.13
2022-08-17T12:37:00.420Z,98727.69
2022-08-17T12:39:26.738Z,98985.44
2022-08-17T12:41:57.361Z,99385.66
2022-08-17T12:44:27.565Z,99492.19
2022-08-17T12:46:53.765Z,99552.66
2022-08-17T12:49:25.846Z,99138.25
2022-08-17T12:51:53.911Z,99277.84
2022-08-17T12:54:22.917Z,99397.81
2022-08-17T12:56:49.141Z,99437.44
2022-08-17T12:59:15.363Z,99547.81
2022-08-17T13:01:55.986Z,99563.41
2022-08-17T13:04:23.559Z,99495.81
2022-08-17T13:06:52.701Z,99574.50
2022-08-17T13:09:36.059Z,99704.25
2022-08-17T13:12:06.874Z,99512.59
2022-08-17T13:14:34.101Z,99548.44
2022-08-17T13:17:01.037Z,99544.53
2022-08-17T13:19:29.792Z,99208.22
2022-08-17T13:22:09.002Z,99346.84
2022-08-17T13:24:37.815Z,99260.59
2022-08-17T13:27:07.996Z,99197.50
2022-08-17T13:29:35.670Z,99109.72
2022-08-17T13:32:05.301Z,99124.75
2022-08-17T13:35:12.031Z,99234.34
2022-08-17T13:37:30.614Z,99539.28
2022-08-17T13:40:09.334Z,98964.84
2022-08-17T13:42:50.390Z,99065.94
2022-08-17T13:45:36.753Z,99435.66
2022-08-17T13:48:20.606Z,99325.47
2022-08-17T13:50:58.764Z,99221.00
2022-08-17T13:53:31.021Z,99267.50
2022-08-17T13:55:57.430Z,99320.53
2022-08-17T13:58:24.544Z,99378.50
2022-08-17T14:00:50.792Z,99394.31
2022-08-17T14:03:17.064Z,99473.31
2022-08-17T14:05:43.288Z,99412.63
2022-08-17T14:08:10.607Z,98864.16
2022-08-17T14:10:36.874Z,99042.44
2022-08-17T14:13:03.240Z,98867.50
2022-08-17T14:15:55.485Z,98804.59
2022-08-17T14:18:15.685Z,98922.41
2022-08-17T14:20:41.908Z,99151.44
2022-08-17T14:23:08.156Z,99292.59
2022-08-17T14:25:34.390Z,99388.66
2022-08-17T14:28:01.107Z,99465.69
2022-08-17T14:30:29.825Z,99556.19
2022-08-17T14:32:56.391Z,99141.75
2022-08-17T14:35:22.664Z,99373.13
2022-08-17T14:37:49.388Z,99129.91
2022-08-17T14:40:16.120Z,99295.38
2022-08-17T14:42:42.798Z,99521.56
2022-08-17T14:45:27.382Z,99429.09
2022-08-17T14:47:55.533Z,99752.72
2022-08-17T14:50:22.086Z,99960.38
2022-08-17T14:52:48.614Z,99843.38
2022-08-17T14:55:15.231Z,99830.16
2022-08-17T14:57:41.479Z,99756.28
2022-08-17T15:00:07.993Z,99846.06
2022-08-17T15:02:42.322Z,99891.84
2022-08-17T15:05:08.638Z,99948.41
2022-08-17T15:07:34.878Z,99934.97
2022-08-17T15:10:01.917Z,99750.25
2022-08-17T15:12:32.232Z,99792.13
2022-08-17T15:14:58.852Z,99730.53
2022-08-17T15:17:25.091Z,99714.97
2022-08-17T15:19:51.340Z,99767.00
2022-08-17T15:22:22.832Z,99843.63
2022-08-17T15:24:49.092Z,99870.97
2022-08-17T15:27:15.319Z,99825.63
2022-08-17T15:29:51.998Z,99904.47
2022-08-17T15:32:27.753Z,99917.91
2022-08-17T15:34:57.572Z,99941.41
2022-08-17T15:37:24.476Z,99965.59
2022-08-17T15:39:50.842Z,100001.72
2022-08-17T15:42:17.510Z,100098.84
2022-08-17T15:44:43.758Z,100089.63
2022-08-17T15:47:10.200Z,100086.19
2022-08-17T15:49:39.008Z,100101.88
2022-08-17T15:52:14.183Z,100143.34
2022-08-17T15:54:40.425Z,100157.91
2022-08-17T15:57:11.567Z,100156.38
2022-08-17T15:59:37.817Z,100194.69
2022-08-17T16:03:15.421Z,100194.66
2022-08-17T16:05:10.137Z,100124.84
2022-08-17T16:07:36.696Z,100157.47
2022-08-17T16:10:03.230Z,100141.31
2022-08-17T16:12:29.474Z,100095.31
2022-08-17T16:14:55.752Z,100106.47
2022-08-17T16:17:40.015Z,100119.53
2022-08-17T16:20:07.547Z,100082.34
2022-08-17T16:22:36.419Z,100053.56
2022-08-17T16:25:10.038Z,100110.38
2022-08-17T16:27:36.272Z,100328.69
2022-08-17T16:30:03.754Z,100169.47
2022-08-17T16:32:31.679Z,100098.84
2022-08-17T16:35:05.909Z,99917.28
2022-08-17T16:37:34.227Z,99893.06
2022-08-17T16:40:01.324Z,99926.13
2022-08-17T16:42:28.771Z,99913.38
2022-08-17T16:44:55.313Z,99999.75
2022-08-17T16:47:21.567Z,100120.72
2022-08-17T16:49:47.992Z,99975.66
2022-08-17T16:52:14.253Z,99972.22
2022-08-17T16:54:59.266Z,99985.28
2022-08-17T16:57:25.500Z,100018.59
2022-08-17T16:59:51.951Z,99916.50
2022-08-17T17:02:44.371Z,99900.34
2022-08-17T17:05:13.324Z,99959.06
2022-08-17T17:07:58.081Z,99923.72
2022-08-17T17:10:26.306Z,99917.63
2022-08-17T17:13:02.386Z,99923.81
2022-08-17T17:15:32.915Z,100025.16
2022-08-17T17:18:01.805Z,100190.91
2022-08-17T17:20:35.125Z,100214.63
2022-08-17T17:23:05.109Z,100183.47
2022-08-17T17:25:39.653Z,100121.75
2022-08-17T17:28:15.450Z,100261.53
2022-08-17T17:30:45.642Z,100285.94
2022-08-17T17:33:16.962Z,100243.44
2022-08-17T17:35:43.155Z,100193.91
2022-08-17T17:38:15.566Z,100171.69
2022-08-17T17:40:42.336Z,100466.34
2022-08-17T17:43:34.942Z,100573.44
2022-08-17T17:46:27.664Z,100545.03
2022-08-17T17:48:55.058Z,100485.41
2022-08-17T17:52:03.568Z,100462.13
2022-08-17T17:54:12.970Z,100436.53
2022-08-17T17:56:57.493Z,100415.91
2022-08-17T17:59:26.735Z,100591.22
2022-08-17T18:01:55.466Z,100712.88
2022-08-17T18:04:32.132Z,100789.50
2022-08-17T18:07:05.571Z,100884.66
2022-08-17T18:09:53.887Z,100886.41
2022-08-17T18:12:27.497Z,100878.03
2022-08-17T18:15:06.144Z,100844.75
2022-08-17T18:17:32.376Z,100845.34
2022-08-17T18:19:58.749Z,100778.88
2022-08-17T18:22:25.074Z,100652.31
2022-08-17T18:24:52.921Z,100593.94
2022-08-17T18:27:20.780Z,100533.75
2022-08-17T18:29:47.203Z,100528.81
2022-08-17T18:32:13.377Z,100515.13
2022-08-17T18:34:48.198Z,100498.88
2022-08-17T18:37:26.580Z,100471.88
2022-08-17T18:39:52.893Z,100467.16
2022-08-17T18:42:26.070Z,100560.31
2022-08-17T18:44:55.155Z,100543.69
2022-08-17T18:47:25.831Z,100473.00
2022-08-17T18:49:53.381Z,100527.88
2022-08-17T18:52:22.468Z,100584.38
2022-08-17T18:54:54.772Z,100522.03
2022-08-17T18:57:25.276Z,100429.84
2022-08-17T18:59:51.529Z,100344.72
2022-08-17T19:02:27.208Z,100366.88
2022-08-17T19:05:01.189Z,100363.25
2022-08-17T19:07:29.060Z,100404.22
2022-08-17T19:09:56.852Z,100405.09
2022-08-17T19:12:27.351Z,100369.66
2022-08-17T19:14:53.859Z,100349.41
2022-08-17T19:17:41.454Z,100326.50
2022-08-17T19:20:10.465Z,100384.53
2022-08-17T19:22:44.274Z,100388.06
2022-08-17T19:25:16.095Z,100450.16
2022-08-17T19:27:49.199Z,100426.31
2022-08-17T19:30:16.350Z,100405.28
2022-08-17T19:32:42.583Z,100364.13
2022-08-17T19:35:12.399Z,100412.38
2022-08-17T19:37:57.029Z,100405.66
2022-08-17T19:40:50.965Z,100427.78
2022-08-17T19:43:14.469Z,100514.28
2022-08-17T19:45:49.284Z,100463.06
2022-08-17T19:48:18.573Z,100442.13
2022-08-17T19:50:56.353Z,100469.38
2022-08-17T19:54:04.243Z,100470.03
2022-08-17T19:56:28.792Z,100483.72
2022-08-17T19:58:54.978Z,100454.50
2022-08-17T20:01:47.610Z,100452.81
2022-08-17T20:04:32.380Z,100498.78
2022-08-17T20:07:18.099Z,100513.84
2022-08-17T20:09:46.631Z,100500.72
2022-08-17T20:12:17.156Z,100497.03
2022-08-17T20:14:53.380Z,100486.03
2022-08-17T20:17:22.266Z,100501.94
2022-08-17T20:19:49.568Z,100547.34
2022-08-17T20:22:17.704Z,100568.16
2022-08-17T20:24:48.275Z,100583.38
2022-08-17T20:27:31.405Z,100559.72
2022-08-17T20:29:58.022Z,100502.00
2022-08-17T20:32:26.139Z,100486.38
2022-08-17T20:35:09.179Z,100424.31
2022-08-17T20:37:35.457Z,100439.69
2022-08-17T20:40:04.732Z,100448.69
2022-08-17T20:42:31.560Z,100446.22
2022-08-17T20:44:58.413Z,100454.00
2022-08-17T20:47:27.479Z,100470.00
2022-08-17T20:49:55.465Z,100433.28
2022-08-17T20:52:40.025Z,100450.50
2022-08-17T20:55:06.483Z,100461.31
2022-08-17T20:57:32.688Z,100457.41
2022-08-17T21:00:00.023Z,100460.13
2022-08-17T21:02:26.377Z,100559.22
2022-08-17T21:04:52.574Z,100565.22
2022-08-17T21:07:43.367Z,100552.34
2022-08-17T21:10:10.044Z,100560.19
2022-08-17T21:12:43.441Z,100586.19
2022-08-17T21:15:27.468Z,100578.97
2022-08-17T21:17:59.539Z,100565.75
2022-08-17T21:20:34.347Z,100575.88
2022-08-17T21:23:19.617Z,100585.31
2022-08-17T21:25:54.933Z,100580.75
2022-08-17T21:29:01.070Z,100593.28
2022-08-17T21:31:27.541Z,100632.53
2022-08-17T21:34:12.991Z,100642.22
2022-08-17T21:36:39.246Z,100618.66
2022-08-17T21:39:06.105Z,100606.13
2022-08-17T21:41:33.717Z,100594.25
2022-08-17T21:44:04.703Z,100565.75
2022-08-17T21:46:32.066Z,100569.53
2022-08-17T21:49:02.624Z,100513.91
2022-08-17T21:51:36.077Z,100538.78
2022-08-17T21:54:13.845Z,100552.56
2022-08-17T21:56:40.332Z,100547.09
2022-08-17T21:59:19.770Z,100575.81
2022-08-17T22:01:56.132Z,100572.16
2022-08-17T22:04:32.549Z,100571.06
2022-08-17T22:06:59.586Z,100576.28
2022-08-17T22:09:27.161Z,100550.06
2022-08-17T22:11:55.534Z,100576.03
2022-08-17T22:14:52.821Z,100604.69
2022-08-17T22:17:24.956Z,100627.16
2022-08-17T22:19:52.234Z,100665.09
2022-08-17T22:22:21.428Z,100638.22
2022-08-17T22:24:55.414Z,100602.47
2022-08-17T22:27:42.929Z,100594.63
2022-08-17T22:30:29.230Z,100583.06
2022-08-17T22:32:55.719Z,100575.09
2022-08-17T22:35:24.933Z,100587.19
2022-08-17T22:37:51.274Z,100573.88
2022-08-17T22:40:26.788Z,100605.69
2022-08-17T22:42:53.020Z,100626.22
2022-08-17T22:45:19.263Z,100631.97
2022-08-17T22:47:45.506Z,100613.28
2022-08-17T22:50:12.826Z,100658.63
2022-08-17T22:52:39.753Z,100667.50
2022-08-17T22:55:09.598Z,100648.69
2022-08-17T22:57:36.187Z,100625.78
2022-08-17T23:00:02.501Z,100600.81
2022-08-17T23:02:32.740Z,100591.41
2022-08-17T23:05:11.193Z,100587.94
2022-08-17T23:07:37.432Z,100606.47
2022-08-17T23:10:03.836Z,100589.28
2022-08-17T23:12:30.080Z,100590.84
2022-08-17T23:14:57.185Z,100582.41
2022-08-17T23:17:23.416Z,100600.84
2022-08-17T23:19:49.654Z,100630.22
2022-08-17T23:22:15.894Z,100640.63
2022-08-17T23:24:43.134Z,100658.56
2022-08-17T23:27:09.376Z,100631.81
2022-08-17T23:29:35.610Z,100612.53
2022-08-17T23:32:01.850Z,100614.03
2022-08-17T23:34:28.097Z,100627.94
2022-08-17T23:36:54.767Z,100627.59
2022-08-17T23:39:27.266Z,100645.03
2022-08-17T23:41:54.730Z,100645.94
2022-08-17T23:44:20.966Z,100616.94
2022-08-17T23:46:47.348Z,100612.97
2022-08-17T23:49:13.594Z,100603.91
2022-08-17T23:51:40.005Z,100609.22
2022-08-17T23:54:09.704Z,100644.69
2022-08-17T23:56:36.206Z,100656.47
2022-08-17T23:59:02.432Z,100690.50
